Time;durP1;ratioP1;P1;durP2;ratioP2;P2;SDS_P1;SDS_P2;PMS_P1;PMS_P2;Temp;Humidity;BMP_temperature;BMP_pressure;BME280_temperature;BME280_humidity;BME280_pressure;Samples;Min_cycle;Max_cycle;Signal;HPM_P1;HPM_P2
2023/04/01 00:01:05;;;;;;;;;;;14.10;99.90;;;;;;5051609;28;20060;-73
2023/04/01 00:03:33;;;;;;;20.40;4.60;;;14.10;99.90;;;;;;5050755;28;19905;-73
2023/04/01 00:05:59;;;;;;;18.00;4.97;;;14.20;99.90;;;;;;5050501;28;20133;-74
2023/04/01 00:08:28;;;;;;;13.50;4.13;;;14.30;99.90;;;;;;5050529;28;20045;-74
2023/04/01 00:10:56;;;;;;;12.10;3.50;;;14.40;99.90;;;;;;5050858;28;20049;-74
2023/04/01 00:13:25;;;;;;;14.50;4.22;;;14.40;99.90;;;;;;5050713;28;20650;-73
2023/04/01 00:15:55;;;;;;;16.02;3.58;;;14.50;99.90;;;;;;5032712;28;20139;-75
2023/04/01 00:18:23;;;;;;;16.67;3.83;;;14.60;99.90;;;;;;5051000;28;20025;-74
2023/04/01 00:20:52;;;;;;;16.80;3.47;;;14.60;99.90;;;;;;5051150;28;20025;-76
2023/04/01 00:23:21;;;;;;;15.10;3.67;;;14.70;99.90;;;;;;5051023;28;20094;-76
2023/04/01 00:25:49;;;;;;;17.05;3.40;;;14.70;99.90;;;;;;5051202;28;20517;-75
2023/04/01 00:28:18;;;;;;;10.82;3.10;;;14.80;99.90;;;;;;5050588;28;20531;-76
2023/04/01 00:30:46;;;;;;;13.98;2.90;;;14.70;99.90;;;;;;5050709;28;20043;-76
2023/04/01 00:33:12;;;;;;;12.50;3.25;;;14.80;99.90;;;;;;5050877;28;20021;-75
2023/04/01 00:35:40;;;;;;;14.25;3.10;;;14.80;99.90;;;;;;5051301;28;20102;-75
2023/04/01 00:38:06;;;;;;;18.60;3.60;;;14.80;99.90;;;;;;5050971;28;20445;-76
2023/04/01 00:40:38;;;;;;;20.88;3.70;;;14.80;99.90;;;;;;5033117;28;20025;-75
2023/04/01 00:43:14;;;;;;;18.65;3.10;;;14.80;99.90;;;;;;5050791;28;20029;-76
2023/04/01 00:45:43;;;;;;;19.42;3.50;;;14.80;99.90;;;;;;5051011;28;20064;-75
2023/04/01 00:48:14;;;;;;;13.15;3.55;;;14.90;99.90;;;;;;5049965;28;20168;-75
2023/04/01 00:50:44;;;;;;;14.10;3.28;;;14.90;99.90;;;;;;5050726;28;20051;-77
2023/04/01 00:53:11;;;;;;;16.25;3.90;;;14.90;99.90;;;;;;5050556;28;20083;-76
2023/04/01 00:55:42;;;;;;;16.20;4.32;;;14.90;99.90;;;;;;5054192;28;20392;-76
2023/04/01 00:58:14;;;;;;;14.38;3.40;;;14.90;99.90;;;;;;5038493;28;20064;-77
2023/04/01 01:00:42;;;;;;;15.88;3.65;;;14.80;99.90;;;;;;5054001;28;20472;-75
2023/04/01 01:03:08;;;;;;;14.23;3.50;;;14.80;99.90;;;;;;5020207;28;20108;-77
2023/04/01 01:05:59;;;;;;;17.60;2.97;;;14.80;99.90;;;;;;5036808;28;20044;-74
2023/04/01 01:08:37;;;;;;;12.30;3.72;;;14.80;99.90;;;;;;5034915;28;20037;-77
2023/04/01 01:11:08;;;;;;;14.98;3.70;;;14.80;99.90;;;;;;5034060;28;20082;-75
2023/04/01 01:13:41;;;;;;;19.55;4.65;;;14.70;99.90;;;;;;5034321;28;20060;-76
2023/04/01 01:16:33;;;;;;;18.05;5.60;;;14.10;99.90;;;;;;5034329;28;20049;-76
2023/04/01 01:19:37;;;;;;;18.27;6.22;;;13.80;99.90;;;;;;5032782;28;20045;-76
2023/04/01 01:22:21;;;;;;;19.67;6.55;;;13.50;99.90;;;;;;5034434;28;20022;-76
2023/04/01 01:25:13;;;;;;;21.35;5.82;;;13.40;99.90;;;;;;5034589;28;20017;-75
2023/04/01 01:27:47;;;;;;;19.73;6.07;;;13.30;99.90;;;;;;5019921;28;20391;-76
2023/04/01 01:30:42;;;;;;;19.15;6.63;;;13.30;99.90;;;;;;5054352;28;20445;-75
2023/04/01 01:33:30;;;;;;;20.95;8.45;;;13.30;99.90;;;;;;5048538;28;20045;-75
2023/04/01 01:35:59;;;;;;;27.50;8.82;;;13.30;99.90;;;;;;5053717;28;20060;-77
2023/04/01 01:38:32;;;;;;;27.02;8.55;;;13.30;99.90;;;;;;5037479;28;20021;-75
2023/04/01 01:41:00;;;;;;;25.23;9.18;;;13.20;99.90;;;;;;5055221;28;20035;-75
2023/04/01 01:43:33;;;;;;;30.10;10.00;;;13.20;99.90;;;;;;5053542;28;20077;-75
2023/04/01 01:46:04;;;;;;;24.85;8.07;;;13.10;99.90;;;;;;5054930;28;20029;-76
2023/04/01 01:48:31;;;;;;;16.60;6.20;;;13.20;99.90;;;;;;5073705;28;20040;-76
2023/04/01 01:50:57;;;;;;;17.50;4.95;;;13.30;99.90;;;;;;5074089;28;20020;-76
2023/04/01 01:53:23;;;;;;;18.50;4.47;;;13.50;99.90;;;;;;5073686;28;20032;-74
2023/04/01 01:55:49;;;;;;;21.53;4.53;;;13.60;99.90;;;;;;5073413;28;20028;-76
2023/04/01 01:58:40;;;;;;;16.42;4.15;;;13.80;99.90;;;;;;5073201;28;20124;-75
2023/04/01 02:01:11;;;;;;;16.88;4.13;;;13.90;99.90;;;;;;5056832;28;20032;-76
2023/04/01 02:03:40;;;;;;;20.55;6.85;;;13.90;99.90;;;;;;5073562;28;20021;-76
2023/04/01 02:06:14;;;;;;;23.50;7.85;;;13.90;99.90;;;;;;5070784;28;20519;-76
2023/04/01 02:08:45;;;;;;;15.90;7.40;;;13.80;99.90;;;;;;5052330;28;20037;-75
2023/04/01 02:11:18;;;;;;;15.23;6.75;;;13.70;99.90;;;;;;5035057;28;20045;-74
2023/04/01 02:14:10;;;;;;;16.80;4.82;;;13.70;99.90;;;;;;5034961;28;20029;-76
2023/04/01 02:17:02;;;;;;;17.02;4.03;;;13.70;99.90;;;;;;5053334;28;20353;-76
2023/04/01 02:19:43;;;;;;;14.38;3.95;;;13.80;99.90;;;;;;5034833;28;20111;-76
2023/04/01 02:22:15;;;;;;;19.20;4.30;;;14.00;99.90;;;;;;5053195;28;20021;-75
2023/04/01 02:24:45;;;;;;;21.42;4.75;;;14.10;99.90;;;;;;5053120;28;20155;-76
2023/04/01 02:27:12;;;;;;;16.38;4.47;;;14.10;99.90;;;;;;5053014;28;20123;-75
2023/04/01 02:29:39;;;;;;;19.55;4.03;;;14.20;99.90;;;;;;5052822;28;20033;-75
2023/04/01 02:32:07;;;;;;;17.77;4.97;;;14.20;99.90;;;;;;5035023;28;20017;-75
2023/04/01 02:34:33;;;;;;;17.20;4.60;;;14.20;99.90;;;;;;5034306;28;20047;-76
2023/04/01 02:37:00;;;;;;;20.15;4.68;;;14.10;99.90;;;;;;5051210;28;20056;-75
2023/04/01 02:39:27;;;;;;;15.35;4.38;;;14.10;99.90;;;;;;5051770;28;20036;-77
2023/04/01 02:41:53;;;;;;;16.83;5.45;;;14.10;99.90;;;;;;5051484;28;20100;-75
2023/04/01 02:44:20;;;;;;;21.27;4.90;;;14.00;99.90;;;;;;5051950;28;20037;-75
2023/04/01 02:46:46;;;;;;;22.60;6.20;;;14.00;99.90;;;;;;5052193;28;20130;-77
2023/04/01 02:49:12;;;;;;;20.37;5.20;;;14.00;99.90;;;;;;5052649;28;20124;-75
2023/04/01 02:51:38;;;;;;;16.88;5.60;;;13.90;99.90;;;;;;5052142;28;20267;-76
2023/04/01 02:54:04;;;;;;;20.27;5.47;;;13.90;99.90;;;;;;5056896;28;20025;-74
2023/04/01 02:56:30;;;;;;;19.20;6.18;;;13.80;99.90;;;;;;5042331;28;20515;-76
2023/04/01 02:58:58;;;;;;;20.30;6.55;;;13.80;99.90;;;;;;5052036;28;20043;-77
2023/04/01 03:01:28;;;;;;;20.10;6.68;;;13.70;99.90;;;;;;5034018;28;20039;-75
2023/04/01 03:03:54;;;;;;;20.38;8.18;;;13.80;99.90;;;;;;5034163;28;20111;-76
2023/04/01 03:06:20;;;;;;;19.40;8.60;;;13.80;99.90;;;;;;5034277;28;20029;-75
2023/04/01 03:08:46;;;;;;;21.30;8.93;;;13.90;99.90;;;;;;5034576;28;20545;-75
2023/04/01 03:11:15;;;;;;;28.90;10.32;;;13.80;99.90;;;;;;5052213;28;20175;-75
2023/04/01 03:13:41;;;;;;;27.95;10.00;;;13.90;99.90;;;;;;5051952;28;20091;-76
2023/04/01 03:16:07;;;;;;;28.07;9.93;;;13.80;99.90;;;;;;5034099;28;20017;-75
2023/04/01 03:18:34;;;;;;;26.17;9.95;;;13.80;99.90;;;;;;5052276;28;20372;-75
2023/04/01 03:21:20;;;;;;;24.65;9.68;;;13.70;99.90;;;;;;5034189;28;20048;-76
2023/04/01 03:23:46;;;;;;;24.35;9.88;;;13.70;99.90;;;;;;5052946;28;20477;-77
2023/04/01 03:26:13;;;;;;;21.42;9.27;;;13.70;99.90;;;;;;5052980;28;20025;-77
2023/04/01 03:28:39;;;;;;;;;;;13.50;99.90;;;;;;5053088;28;20500;-76
2023/04/01 03:31:06;;;;;;;30.20;9.48;;;13.40;99.90;;;;;;5053217;28;19908;-76
2023/04/01 03:33:33;;;;;;;23.45;10.10;;;13.20;99.90;;;;;;5052657;28;20107;-77
2023/04/01 03:36:00;;;;;;;26.55;10.30;;;13.30;99.90;;;;;;5034530;28;20043;-75
2023/04/01 03:38:27;;;;;;;21.70;9.80;;;13.20;99.90;;;;;;5052556;28;20090;-75
2023/04/01 03:40:54;;;;;;;28.67;9.68;;;13.30;99.90;;;;;;5053087;28;20491;-76
2023/04/01 03:43:22;;;;;;;25.20;10.57;;;13.30;99.90;;;;;;5034250;28;20552;-77
2023/04/01 03:45:50;;;;;;;25.92;9.40;;;13.30;99.90;;;;;;5052707;28;20083;-73
2023/04/01 03:48:16;;;;;;;32.88;10.02;;;13.40;99.90;;;;;;5034794;28;20041;-76
2023/04/01 03:50:43;;;;;;;32.00;10.75;;;13.50;99.90;;;;;;5034847;28;20067;-75
2023/04/01 03:53:10;;;;;;;34.97;11.05;;;13.40;99.90;;;;;;5052299;28;20106;-76
2023/04/01 03:55:36;;;;;;;;;;;13.30;99.90;;;;;;5018414;28;20119;-76
2023/04/01 03:58:03;;;;;;;28.08;10.07;;;13.30;99.90;;;;;;5052342;28;19963;-76
2023/04/01 04:00:30;;;;;;;;;;;13.20;99.90;;;;;;5052848;28;20028;-75
2023/04/01 04:02:57;;;;;;;24.80;9.10;;;13.30;99.90;;;;;;5052350;28;20288;-77
2023/04/01 04:05:24;;;;;;;25.30;8.88;;;13.40;99.90;;;;;;5034543;28;20098;-75
2023/04/01 04:07:51;;;;;;;34.00;11.07;;;13.40;99.90;;;;;;5051968;28;20029;-76
2023/04/01 04:10:18;;;;;;;;;;;13.50;99.90;;;;;;5034251;28;20521;-75
2023/04/01 04:12:45;;;;;;;25.42;9.77;;;13.50;99.90;;;;;;5052391;28;20050;-76
2023/04/01 04:15:12;;;;;;;31.00;8.80;;;13.60;99.90;;;;;;5052538;28;20490;-75
2023/04/01 04:17:38;;;;;;;20.85;8.50;;;13.60;99.90;;;;;;5053197;28;20029;-77
2023/04/01 04:20:04;;;;;;;32.13;8.70;;;13.60;99.90;;;;;;5052493;28;20384;-75
2023/04/01 04:22:30;;;;;;;24.23;8.75;;;13.70;99.90;;;;;;5052589;28;20747;-76
2023/04/01 04:24:56;;;;;;;28.60;9.23;;;13.70;99.90;;;;;;5053103;28;20035;-75
2023/04/01 04:27:22;;;;;;;22.57;8.43;;;13.70;99.90;;;;;;5052719;28;20104;-75
2023/04/01 04:29:49;;;;;;;28.67;8.53;;;13.70;99.90;;;;;;5052675;28;20100;-76
2023/04/01 04:32:15;;;;;;;;;;;13.70;99.90;;;;;;5052620;28;20024;-76
2023/04/01 04:34:41;;;;;;;21.45;8.07;;;13.80;99.90;;;;;;5052493;28;19905;-76
2023/04/01 04:37:07;;;;;;;25.00;8.23;;;13.80;99.90;;;;;;5052331;28;20021;-77
2023/04/01 04:39:34;;;;;;;28.60;8.25;;;13.90;99.90;;;;;;5052386;28;20507;-75
2023/04/01 04:42:00;;;;;;;31.83;8.20;;;13.90;99.90;;;;;;5052069;28;20018;-77
2023/04/01 04:44:26;;;;;;;35.13;8.00;;;13.90;99.90;;;;;;5052318;28;20469;-77
2023/04/01 04:46:52;;;;;;;29.52;8.55;;;13.80;99.90;;;;;;5052197;28;20033;-77
2023/04/01 04:49:18;;;;;;;33.72;8.73;;;13.90;99.90;;;;;;5052440;28;20037;-76
2023/04/01 04:51:45;;;;;;;22.83;8.02;;;13.90;99.90;;;;;;5052727;28;20025;-78
2023/04/01 04:54:11;;;;;;;23.80;6.78;;;14.00;99.90;;;;;;5052455;28;20028;-73
2023/04/01 04:56:37;;;;;;;33.57;8.37;;;14.00;99.90;;;;;;5052261;28;20081;-75
2023/04/01 04:59:03;;;;;;;33.67;7.90;;;14.00;99.90;;;;;;5051780;28;20032;-76
2023/04/01 05:01:29;;;;;;;32.53;7.63;;;14.10;99.90;;;;;;5051877;28;20051;-77
2023/04/01 05:03:55;;;;;;;30.05;8.18;;;14.10;99.90;;;;;;5052235;28;20063;-76
2023/04/01 05:06:22;;;;;;;29.73;8.07;;;14.20;99.90;;;;;;5052010;28;20033;-78
2023/04/01 05:08:48;;;;;;;;;;;14.20;99.90;;;;;;5052638;28;20071;-75
2023/04/01 05:11:19;;;;;;;25.73;7.78;;;14.20;99.90;;;;;;5050159;28;19917;-75
2023/04/01 05:13:45;;;;;;;28.52;7.80;;;14.20;99.90;;;;;;5051404;28;20025;-72
2023/04/01 05:16:18;;;;;;;25.50;7.30;;;14.20;99.90;;;;;;5050930;28;20029;-73
2023/04/01 05:18:44;;;;;;;23.65;9.27;;;14.20;99.90;;;;;;5032235;28;20033;-74
2023/04/01 05:21:13;;;;;;;27.65;8.27;;;14.20;99.90;;;;;;5050169;28;20461;-73
2023/04/01 05:23:41;;;;;;;33.72;8.68;;;14.20;99.90;;;;;;5048237;28;20021;-73
2023/04/01 05:26:13;;;;;;;21.33;6.70;;;14.10;99.90;;;;;;5050459;28;20116;-71
2023/04/01 05:28:40;;;;;;;32.40;7.65;;;14.20;99.90;;;;;;5047484;28;20036;-70
2023/04/01 05:31:08;;;;;;;34.40;8.85;;;14.10;99.90;;;;;;5049968;28;20029;-74
2023/04/01 05:33:35;;;;;;;37.28;8.65;;;14.20;99.90;;;;;;5048877;28;20090;-75
2023/04/01 05:36:15;;;;;;;29.63;8.73;;;14.20;99.90;;;;;;5050094;28;20406;-75
2023/04/01 05:38:42;;;;;;;32.92;7.85;;;14.20;99.90;;;;;;5050052;28;20020;-73
2023/04/01 05:41:08;;;;;;;32.78;7.57;;;14.20;99.90;;;;;;5050002;28;20180;-77
2023/04/01 05:43:37;;;;;;;32.20;7.43;;;14.20;99.90;;;;;;5032237;28;20548;-76
2023/04/01 05:46:03;;;;;;;29.25;7.35;;;14.30;99.90;;;;;;5058316;28;20017;-77
2023/04/01 05:48:29;;;;;;;36.63;8.27;;;14.30;99.90;;;;;;5045475;28;20469;-77
2023/04/01 05:50:55;;;;;;;25.00;7.03;;;14.40;99.90;;;;;;5053713;28;20276;-75
2023/04/01 05:53:22;;;;;;;34.80;7.53;;;14.40;99.90;;;;;;5054300;28;20025;-77
2023/04/01 05:55:48;;;;;;;26.05;6.72;;;14.40;99.90;;;;;;5054260;28;20029;-78
2023/04/01 05:58:15;;;;;;;26.83;6.38;;;14.30;99.90;;;;;;5054518;28;20036;-76
2023/04/01 06:00:41;;;;;;;22.38;6.88;;;14.40;99.90;;;;;;5035971;28;20483;-77
2023/04/01 06:03:07;;;;;;;24.87;6.40;;;14.30;99.90;;;;;;5035988;28;20024;-78
2023/04/01 06:05:40;;;;;;;23.67;6.60;;;14.40;99.90;;;;;;5054293;28;20029;-79
2023/04/01 06:08:12;;;;;;;27.48;6.68;;;14.30;99.90;;;;;;5054019;28;20294;-73
2023/04/01 06:11:03;;;;;;;23.52;6.93;;;14.30;99.90;;;;;;5053353;28;20053;-76
2023/04/01 06:13:38;;;;;;;18.83;6.18;;;14.30;99.90;;;;;;5035942;28;20125;-77
2023/04/01 06:16:34;;;;;;;24.42;5.93;;;14.50;99.90;;;;;;5053935;28;20033;-77
2023/04/01 06:19:10;;;;;;;;;;;14.70;99.90;;;;;;5054303;28;20139;-79
2023/04/01 06:21:48;;;;;;;25.00;6.28;;;15.30;99.90;;;;;;5054288;28;20292;-78
2023/04/01 06:24:32;;;;;;;16.73;5.45;;;15.60;99.90;;;;;;5053780;28;20063;-76
2023/04/01 06:27:25;;;;;;;29.45;5.18;;;15.70;99.90;;;;;;5053546;28;20476;-77
2023/04/01 06:30:09;;;;;;;24.05;5.15;;;16.80;99.90;;;;;;5053944;28;20083;-76
2023/04/01 06:32:47;;;;;;;17.52;4.13;;;17.10;99.90;;;;;;5053623;28;20028;-74
2023/04/01 06:35:43;;;;;;;24.08;4.80;;;17.30;99.90;;;;;;5053398;28;20444;-76
2023/04/01 06:38:33;;;;;;;19.98;4.93;;;17.10;99.90;;;;;;5053634;28;20021;-75
2023/04/01 06:41:14;;;;;;;19.40;5.40;;;17.10;99.90;;;;;;5053721;28;20556;-76
2023/04/01 06:43:55;;;;;;;22.63;5.18;;;17.70;99.90;;;;;;5053578;28;20112;-76
2023/04/01 06:46:51;;;;;;;17.17;4.70;;;17.80;99.90;;;;;;5053169;28;20040;-74
2023/04/01 06:49:35;;;;;;;21.13;5.07;;;18.10;99.90;;;;;;5047952;28;20095;-76
2023/04/01 06:52:29;;;;;;;24.10;5.20;;;17.90;99.90;;;;;;5035692;28;20029;-77
2023/04/01 06:55:16;;;;;;;26.52;4.95;;;18.80;99.90;;;;;;5034698;28;20031;-76
2023/04/01 06:57:49;;;;;;;22.83;5.63;;;18.60;99.90;;;;;;5052826;28;20458;-77
2023/04/01 07:00:40;;;;;;;25.27;5.47;;;18.30;99.90;;;;;;5053201;28;20029;-75
2023/04/01 07:03:32;;;;;;;23.65;5.57;;;18.70;99.90;;;;;;5052661;28;20118;-76
2023/04/01 07:06:03;;;;;;;21.80;5.22;;;19.00;99.90;;;;;;5053279;28;20025;-77
2023/04/01 07:08:31;;;;;;;25.48;5.78;;;19.40;99.90;;;;;;5053095;28;20045;-76
2023/04/01 07:11:04;;;;;;;20.33;5.32;;;19.70;99.90;;;;;;5052267;28;20504;-75
2023/04/01 07:13:41;;;;;;;25.85;5.18;;;19.20;99.90;;;;;;5052297;28;20108;-75
2023/04/01 07:16:29;;;;;;;21.10;5.25;;;19.40;99.90;;;;;;5034989;28;20075;-75
2023/04/01 07:19:33;;;;;;;32.83;5.93;;;19.30;99.90;;;;;;5034647;28;20033;-77
2023/04/01 07:22:14;;;;;;;23.30;4.63;;;19.40;99.90;;;;;;5052494;28;20450;-76
2023/04/01 07:24:44;;;;;;;23.70;5.00;;;19.60;99.90;;;;;;5052719;28;20079;-77
2023/04/01 07:27:14;;;;;;;16.83;4.68;;;20.00;99.90;;;;;;5052251;28;20155;-78
2023/04/01 07:29:40;;;;;;;13.48;3.88;;;20.50;99.90;;;;;;5052643;28;20044;-77
2023/04/01 07:32:13;;;;;;;;;;;21.20;99.90;;;;;;5053153;28;20018;-77
2023/04/01 07:34:50;;;;;;;19.83;4.90;;;21.90;99.90;;;;;;5052657;28;19905;-78
2023/04/01 07:37:45;;;;;;;17.23;5.15;;;22.50;99.90;;;;;;5052534;28;20063;-77
2023/04/01 07:40:31;;;;;;;19.15;5.30;;;21.90;99.90;;;;;;5054794;28;20379;-79
2023/04/01 07:43:25;;;;;;;18.70;5.35;;;21.70;99.90;;;;;;5053319;28;20449;-77
2023/04/01 07:46:17;;;;;;;20.73;5.53;;;21.20;99.90;;;;;;5053160;28;20083;-77
2023/04/01 07:49:00;;;;;;;27.52;6.05;;;20.80;99.90;;;;;;5052579;28;20205;-76
2023/04/01 07:51:39;;;;;;;24.60;6.40;;;20.80;99.90;;;;;;5051653;28;20448;-77
2023/04/01 07:54:22;;;;;;;27.40;6.57;;;20.80;99.90;;;;;;5051936;28;20033;-76
2023/04/01 07:57:08;;;;;;;19.15;6.70;;;20.80;99.90;;;;;;5052241;28;20035;-76
2023/04/01 07:59:51;;;;;;;20.27;6.25;;;20.60;99.90;;;;;;5033439;28;20416;-76
2023/04/01 08:02:26;;;;;;;20.13;5.25;;;20.80;99.90;;;;;;5051192;28;20021;-76
2023/04/01 08:05:10;;;;;;;20.55;5.65;;;21.00;99.90;;;;;;5033058;28;20029;-77
2023/04/01 08:08:17;;;;;;;26.10;6.15;;;21.10;99.90;;;;;;5050608;28;20072;-77
2023/04/01 08:11:09;;;;;;;17.92;5.32;;;21.60;99.90;;;;;;5051308;28;20041;-78
2023/04/01 08:13:53;;;;;;;16.27;5.13;;;21.70;99.90;;;;;;5048921;28;20033;-78
2023/04/01 08:16:37;;;;;;;17.15;4.72;;;21.70;99.90;;;;;;5052368;28;20021;-76
2023/04/01 08:19:37;;;;;;;19.80;5.20;;;21.80;99.90;;;;;;5052977;28;20060;-78
2023/04/01 08:22:15;;;;;;;18.88;4.90;;;21.80;99.90;;;;;;5034094;28;20103;-75
2023/04/01 08:24:43;;;;;;;18.55;4.88;;;22.20;99.90;;;;;;5051654;28;20104;-78
2023/04/01 08:27:16;;;;;;;27.27;5.43;;;22.00;99.90;;;;;;5052039;28;20033;-76
2023/04/01 08:30:21;;;;;;;20.75;4.88;;;21.10;99.90;;;;;;5051261;28;20039;-77
2023/04/01 08:33:01;;;;;;;24.13;5.20;;;20.70;99.90;;;;;;5051615;28;20021;-76
2023/04/01 08:35:34;;;;;;;28.67;7.55;;;21.10;99.90;;;;;;5034364;28;20036;-77
2023/04/01 08:38:06;;;;;;;30.73;7.40;;;21.70;99.90;;;;;;5051640;28;20158;-76
2023/04/01 08:40:44;;;;;;;28.88;8.20;;;21.60;99.90;;;;;;5051968;28;20168;-76
2023/04/01 08:43:28;;;;;;;25.77;7.28;;;21.60;99.90;;;;;;5051661;28;20099;-78
2023/04/01 08:46:14;;;;;;;20.48;6.78;;;21.60;99.90;;;;;;5051947;28;20033;-77
2023/04/01 08:48:55;;;;;;;22.52;6.80;;;21.70;99.90;;;;;;5033539;28;20063;-78
2023/04/01 08:51:30;;;;;;;21.05;6.68;;;21.60;99.90;;;;;;5051948;28;20480;-78
2023/04/01 08:54:25;;;;;;;29.30;7.07;;;21.60;99.90;;;;;;5052079;28;20061;-77
2023/04/01 08:57:03;;;;;;;29.90;8.53;;;21.50;99.90;;;;;;5051843;28;20021;-78
2023/04/01 08:59:35;;;;;;;22.45;7.82;;;21.30;99.90;;;;;;5051328;28;20036;-76
2023/04/01 09:02:17;;;;;;;27.60;7.00;;;21.10;99.90;;;;;;5052233;28;20028;-77
2023/04/01 09:04:58;;;;;;;21.73;7.65;;;21.10;99.90;;;;;;5051590;28;20025;-77
2023/04/01 09:07:42;;;;;;;22.63;6.50;;;21.10;99.90;;;;;;5033792;28;20028;-77
2023/04/01 09:10:18;;;;;;;24.27;7.40;;;21.40;99.90;;;;;;5051641;28;20087;-77
2023/04/01 09:13:07;;;;;;;26.55;7.00;;;21.70;99.90;;;;;;5051527;28;20265;-78
2023/04/01 09:16:01;;;;;;;24.33;6.32;;;21.90;99.90;;;;;;5052075;28;20036;-77
2023/04/01 09:18:30;;;;;;;28.10;7.78;;;21.70;99.90;;;;;;5054252;28;20441;-76
2023/04/01 09:21:34;;;;;;;25.77;7.18;;;21.40;99.90;;;;;;5055434;28;20032;-77
2023/04/01 09:24:16;;;;;;;26.88;7.90;;;21.30;99.90;;;;;;5036763;28;20067;-78
2023/04/01 09:26:55;;;;;;;31.05;8.00;;;21.70;99.90;;;;;;5055266;28;20025;-77
2023/04/01 09:29:30;;;;;;;23.13;7.10;;;21.60;99.90;;;;;;5054876;28;20517;-79
2023/04/01 09:32:33;;;;;;;25.10;7.15;;;22.00;99.90;;;;;;5054921;28;20358;-77
2023/04/01 09:35:37;;;;;;;30.05;7.03;;;22.30;99.90;;;;;;5054345;28;20037;-78
2023/04/01 09:38:25;;;;;;;27.02;6.85;;;22.10;99.90;;;;;;5054653;28;20055;-78
2023/04/01 09:41:03;;;;;;;25.40;7.22;;;22.60;99.90;;;;;;5054136;28;20125;-76
2023/04/01 09:44:01;;;;;;;31.73;7.22;;;21.90;99.90;;;;;;5054927;28;20033;-76
2023/04/01 09:46:54;;;;;;;25.38;7.57;;;21.60;99.90;;;;;;5036826;28;20025;-77
2023/04/01 09:49:43;;;;;;;34.65;7.70;;;22.10;99.90;;;;;;5054972;28;20063;-76
2023/04/01 09:52:20;;;;;;;25.42;7.20;;;22.40;99.90;;;;;;5059681;28;20021;-76
2023/04/01 09:55:16;;;;;;;25.05;7.35;;;22.00;99.90;;;;;;5055740;28;20025;-77
2023/04/01 09:57:56;;;;;;;26.67;7.38;;;22.20;99.90;;;;;;5024364;28;20043;-77
2023/04/01 10:00:43;;;;;;;25.85;6.80;;;22.20;99.90;;;;;;5034642;28;20108;-77
2023/04/01 10:03:54;;;;;;;28.42;7.63;;;22.50;99.90;;;;;;5034288;28;20053;-76
2023/04/01 10:07:08;;;;;;;28.63;6.78;;;22.80;99.90;;;;;;5020168;28;20380;-76
2023/04/01 10:09:39;;;;;;;29.08;6.55;;;22.50;99.90;;;;;;4972211;28;20582;-79
2023/04/01 10:12:37;;;;;;;28.50;6.80;;;22.20;99.90;;;;;;4992319;28;20061;-78
2023/04/01 10:15:21;;;;;;;38.35;7.30;;;22.20;99.90;;;;;;4976430;28;20042;-76
2023/04/01 10:18:17;;;;;;;30.10;7.35;;;22.10;99.90;;;;;;4993071;28;20034;-75
2023/04/01 10:21:17;;;;;;;25.60;6.60;;;21.90;99.90;;;;;;4975325;28;20104;-77
2023/04/01 10:24:04;;;;;;;34.15;7.90;;;22.00;99.90;;;;;;4992284;28;20065;-80
2023/04/01 10:27:00;;;;;;;32.05;8.30;;;21.90;99.90;;;;;;4992699;28;20183;-80
2023/04/01 10:29:26;;;;;;;27.65;6.50;;;21.30;99.90;;;;;;4975085;28;20076;-78
2023/04/01 10:32:13;;;;;;;24.65;6.97;;;21.40;99.90;;;;;;4992450;28;20030;-79
2023/04/01 10:35:05;;;;;;;24.73;6.43;;;21.50;99.90;;;;;;4969983;28;20129;-80
2023/04/01 10:38:06;;;;;;;30.50;7.57;;;21.40;99.90;;;;;;4991936;28;20478;-81
2023/04/01 10:40:51;;;;;;;29.80;7.53;;;21.60;99.90;;;;;;5032834;28;20068;-79
2023/04/01 10:43:44;;;;;;;24.75;6.55;;;21.20;99.90;;;;;;5054210;28;20075;-79
2023/04/01 10:46:34;;;;;;;31.55;6.63;;;21.30;99.90;;;;;;5054165;28;20128;-78
2023/04/01 10:49:35;;;;;;;24.33;6.55;;;21.30;99.90;;;;;;5054500;28;20079;-80
2023/04/01 10:52:07;;;;;;;28.50;6.85;;;21.70;99.90;;;;;;5053995;28;20483;-79
2023/04/01 10:54:45;;;;;;;26.88;6.97;;;21.60;99.90;;;;;;5054714;28;20021;-81
2023/04/01 10:57:30;;;;;;;29.70;7.40;;;21.80;99.90;;;;;;5054198;28;20060;-81
2023/04/01 11:00:18;;;;;;;25.08;6.60;;;21.80;99.90;;;;;;5054110;28;20021;-80
2023/04/01 11:03:12;;;;;;;26.77;6.13;;;21.80;99.90;;;;;;5053781;28;20404;-80
2023/04/01 11:06:10;;;;;;;24.80;6.65;;;22.10;99.90;;;;;;5054417;28;20096;-80
2023/04/01 11:08:42;;;;;;;25.15;6.30;;;22.30;99.90;;;;;;5034162;28;20048;-78
2023/04/01 11:11:21;;;;;;;29.80;6.63;;;22.40;99.90;;;;;;5033651;28;20041;-79
2023/04/01 11:13:59;;;;;;;27.63;6.25;;;22.40;99.90;;;;;;5033552;28;20512;-78
2023/04/01 11:17:14;;;;;;;24.45;6.93;;;22.50;99.90;;;;;;5034612;28;20017;-79
2023/04/01 11:20:02;;;;;;;25.50;5.93;;;22.50;99.90;;;;;;5034288;28;20032;-80
2023/04/01 11:22:47;;;;;;;17.85;5.00;;;22.50;99.90;;;;;;5034082;28;20029;-81
2023/04/01 11:25:47;;;;;;;19.88;5.07;;;22.50;99.90;;;;;;5034843;28;20135;-78
2023/04/01 11:28:38;;;;;;;22.00;5.10;;;22.00;99.90;;;;;;5034474;28;20040;-80
2023/04/01 11:31:28;;;;;;;22.05;5.22;;;22.00;99.90;;;;;;5034318;28;20099;-80
2023/04/01 11:34:27;;;;;;;25.60;5.38;;;22.00;99.90;;;;;;5034300;28;20051;-80
2023/04/01 11:36:59;;;;;;;21.35;5.47;;;22.10;99.90;;;;;;5042949;28;20044;-79
2023/04/01 11:39:43;;;;;;;29.23;5.55;;;22.40;99.90;;;;;;5054341;28;20029;-79
2023/04/01 11:42:35;;;;;;;20.20;4.88;;;22.50;99.90;;;;;;5054124;28;20158;-80
2023/04/01 11:45:27;;;;;;;16.45;4.80;;;22.60;99.90;;;;;;5054115;28;20044;-81
2023/04/01 11:48:28;;;;;;;22.45;4.60;;;23.00;99.90;;;;;;5053949;28;20059;-80
2023/04/01 11:51:09;;;;;;;22.42;5.55;;;23.40;99.90;;;;;;5022851;28;20420;-79
2023/04/01 11:54:13;;;;;;;20.85;5.60;;;23.50;99.90;;;;;;5053595;28;20039;-79
2023/04/01 11:56:52;;;;;;;20.02;5.80;;;23.20;99.90;;;;;;5052479;28;20037;-80
2023/04/01 11:59:53;;;;;;;25.10;6.15;;;23.20;99.90;;;;;;5053268;28;20052;-80
2023/04/01 12:02:31;;;;;;;24.67;5.75;;;23.40;99.90;;;;;;5053233;28;20067;-79
2023/04/01 12:05:19;;;;;;;33.03;6.30;;;22.90;99.90;;;;;;5053367;28;20100;-77
2023/04/01 12:08:05;;;;;;;28.75;6.55;;;22.40;99.90;;;;;;5052919;28;20040;-80
2023/04/01 12:10:47;;;;;;;35.80;6.10;;;22.00;99.90;;;;;;5052561;28;20111;-64
2023/04/01 12:14:02;;;;;;;33.70;5.72;;;21.60;99.90;;;;;;5052915;28;20025;-66
2023/04/01 12:16:46;;;;;;;26.13;6.15;;;21.60;99.90;;;;;;5039371;28;20097;-64
2023/04/01 12:19:29;;;;;;;33.72;6.72;;;21.80;99.90;;;;;;5053238;28;20522;-64
2023/04/01 12:22:07;;;;;;;35.25;6.28;;;22.10;99.90;;;;;;5053152;28;20108;-64
2023/04/01 12:24:50;;;;;;;27.60;5.75;;;22.40;99.90;;;;;;5053584;28;20537;-66
2023/04/01 12:27:31;;;;;;;25.05;5.70;;;22.70;99.90;;;;;;5053601;28;20074;-65
2023/04/01 12:30:16;;;;;;;22.00;5.45;;;23.20;99.90;;;;;;5052895;28;20064;-66
2023/04/01 12:33:22;;;;;;;19.20;5.80;;;23.40;99.90;;;;;;5053622;28;20365;-65
2023/04/01 12:36:15;;;;;;;14.10;4.90;;;23.50;99.90;;;;;;5053550;28;20025;-65
2023/04/01 12:38:47;;;;;;;17.85;5.30;;;23.50;99.90;;;;;;5052868;28;20052;-65
2023/04/01 12:41:27;;;;;;;14.88;4.72;;;23.70;99.90;;;;;;5053342;28;20044;-66
2023/04/01 12:44:13;;;;;;;15.52;4.88;;;24.00;99.90;;;;;;5053055;28;20021;-66
2023/04/01 12:46:56;;;;;;;13.32;4.78;;;23.90;99.90;;;;;;5053647;28;20025;-65
2023/04/01 12:49:22;;;;;;;16.27;4.88;;;23.90;99.90;;;;;;5053549;28;20036;-66
2023/04/01 12:52:19;;;;;;;14.77;4.70;;;23.90;99.90;;;;;;5053696;28;20017;-65
2023/04/01 12:55:06;;;;;;;15.43;5.03;;;24.00;99.90;;;;;;5053509;28;20107;-64
2023/04/01 12:57:56;;;;;;;14.32;4.53;;;24.10;99.90;;;;;;5057169;28;20350;-64
2023/04/01 13:00:43;;;;;;;17.20;4.75;;;24.10;99.90;;;;;;5057003;28;20078;-64
2023/04/01 13:03:28;;;;;;;18.25;5.18;;;24.40;99.90;;;;;;5057218;28;20390;-65
2023/04/01 13:06:31;;;;;;;13.63;4.80;;;24.70;99.90;;;;;;5056687;28;20029;-65
2023/04/01 13:08:57;;;;;;;16.92;4.45;;;24.50;99.90;;;;;;5056559;28;20033;-63
2023/04/01 13:11:33;;;;;;;12.27;4.57;;;24.50;99.90;;;;;;5056439;28;20041;-65
2023/04/01 13:14:27;;;;;;;12.07;4.38;;;24.40;99.90;;;;;;5056251;28;20033;-64
2023/04/01 13:17:18;;;;;;;17.55;4.65;;;23.90;99.90;;;;;;5056925;28;20055;-65
2023/04/01 13:19:51;;;;;;;12.30;4.00;;;24.10;99.90;;;;;;5057027;28;20381;-64
2023/04/01 13:22:27;;;;;;;15.38;4.70;;;24.50;99.90;;;;;;5056887;28;20575;-65
2023/04/01 13:25:15;;;;;;;15.40;4.60;;;24.60;99.90;;;;;;5038670;28;20400;-65
2023/04/01 13:27:45;;;;;;;11.65;4.55;;;24.50;99.90;;;;;;5056117;28;20032;-64
2023/04/01 13:30:29;;;;;;;9.73;4.30;;;24.20;99.90;;;;;;5056299;28;20033;-65
2023/04/01 13:33:05;;;;;;;15.55;4.65;;;23.70;99.90;;;;;;5056565;28;20360;-64